Información del aeropuerto LXGB

Información de pista
Pista 09 Longitud 6000 ft Anchura 150 ft
Elevación 10 ft Umbral 302 ft Rumbo 88
Pista 27 Longitud 6000 ft Anchura 150 ft
Elevación 11 ft Umbral 368 ft Rumbo 268
Frecuencias del aeropuerto
Tipo A/D Nombre APP Frecuencia 122.8 MHZ
Tipo OPS Nombre GIB TALKDO Frecuencia 130.4 MHZ
Tipo TWR Nombre TWR Frecuencia 131.2 MHZ
Radioayudas del aeropuerto
Tipo TACAN Nombre Gibraltar Frecuencia 113600 KHZ
Información meteorológica del aeropuerto y NOTAM
ADDS - METARS form results

(2358 UTC 05 May 2021)
Data provider http://aviationweather.gov/metar/data/
 
Forecast for: LXGB (GIBRALTAR (CIV/M, GI)
Text: TAF LXGB 051326Z 0515/0523 08008KT 9999 FEW030
Forecast period: 1500 to 2300 UTC 05 May 2021
Forecast type: FROM: standard forecast or significant change
Winds: from the E (80 degrees) at 9 MPH (8 knots; 4.1 m/s)
Visibility: 6 or more miles (10+ km)
Ceiling: at least 12,000 feet AGL
Clouds: few clouds at 3000 feet AGL
Weather: no significant weather forecast for this period
Text: PROB40
Forecast period: 1700 to 2300 UTC 05 May 2021
Forecast type: TEMPORARY: The following changes expected for less than half the time period
Visibility: 4 miles (7 km)
Ceiling: at least 12,000 feet AGL
Clouds: scattered clouds at 800 feet AGL
Weather: HZ  (haze)